Terminal Aerodrome Forecast
Issued by NWS Missoula, MT

Home | Current Version | Previous Version | Text Only | Print | Product List | Glossary On
Versions: 1 2 3 4 5 6 7 8 9 10 11 12 13 14 15 16
622
FTUS45 KMSO 131506 AAB
TAFBTM
TAF AMD
KBTM 131506Z 1315/1412 33020G30KT 5SM -SN SCT025 OVC030
      TEMPO 1315/1316 2SM -SN BKN013 BKN025
     FM131600 30016G26KT P6SM VCSH OVC050
     FM140100 30008KT P6SM BKN050
     FM140400 VRB03KT 4SM -SHRASN FEW030 OVC050=

USA.gov is the U.S. government's official web portal to all federal, state and local government web resources and services.